Time;durP1;ratioP1;P1;durP2;ratioP2;P2;SDS_P1;SDS_P2;PMS_P1;PMS_P2;Temp;Humidity;BMP_temperature;BMP_pressure;BME280_temperature;BME280_humidity;BME280_pressure;Samples;Min_cycle;Max_cycle;Signal;HPM_P1;HPM_P2
2021/01/02 00:02:27;;;;;;;66.57;29.77;;;;;;;-0.42;100.00;96036.84;5090858;28;20192;-64
2021/01/02 00:05:06;;;;;;;69.27;27.20;;;;;;;-0.51;100.00;96038.13;5091565;28;20710;-64
2021/01/02 00:08:11;;;;;;;54.90;25.80;;;;;;;-0.61;99.41;96035.25;5091223;28;20347;-64
2021/01/02 00:10:50;;;;;;;53.93;25.33;;;;;;;-0.88;97.53;96043.13;5088663;28;20659;-64
2021/01/02 00:13:39;;;;;;;49.27;23.50;;;;;;;-1.00;96.42;96047.34;5091316;28;20585;-63
2021/01/02 00:16:44;;;;;;;47.97;23.00;;;;;;;-1.09;95.33;96037.59;5091155;28;20724;-64
2021/01/02 00:19:27;;;;;;;43.03;22.73;;;;;;;-1.24;95.17;96039.63;5073322;28;20231;-64
2021/01/02 00:22:01;;;;;;;46.40;23.87;;;;;;;-1.18;95.21;96046.47;5091100;28;20294;-64
2021/01/02 00:24:41;;;;;;;46.60;23.50;;;;;;;-1.25;95.40;96041.44;5091116;28;20281;-64
2021/01/02 00:27:10;;;;;;;54.87;25.80;;;;;;;-1.30;95.40;96048.91;5091423;28;20199;-65
2021/01/02 00:30:11;;;;;;;53.20;25.43;;;;;;;-1.32;95.79;96055.97;5091122;28;20231;-64
2021/01/02 00:32:47;;;;;;;50.87;24.50;;;;;;;-1.34;95.37;96063.03;5085819;28;20214;-64
2021/01/02 00:35:23;;;;;;;50.70;25.60;;;;;;;-1.65;95.71;96063.00;5091101;28;20195;-64
2021/01/02 00:38:01;;;;;;;48.83;24.50;;;;;;;-1.55;96.95;96065.91;5090747;28;20622;-64
2021/01/02 00:40:28;;;;;;;49.70;24.77;;;;;;;-1.45;96.81;96063.69;5090315;28;20231;-64
2021/01/02 00:42:57;;;;;;;55.10;24.73;;;;;;;-1.44;96.34;96066.03;5090698;28;20633;-63
2021/01/02 00:45:25;;;;;;;60.23;27.50;;;;;;;-1.42;96.89;96073.47;5090472;28;20191;-64
2021/01/02 00:47:53;;;;;;;54.77;26.23;;;;;;;-1.39;96.48;96078.16;5090362;28;20199;-66
2021/01/02 00:50:21;;;;;;;55.77;26.73;;;;;;;-1.30;96.98;96079.50;5090452;28;20289;-65
2021/01/02 00:53:04;;;;;;;56.00;26.83;;;;;;;-1.45;97.38;96068.78;5090366;28;20293;-64
2021/01/02 00:56:07;;;;;;;56.63;25.87;;;;;;;-1.39;97.54;96068.75;5090537;28;20192;-64
2021/01/02 00:59:15;;;;;;;53.67;25.57;;;;;;;-1.48;97.31;96066.63;5090473;28;20574;-64
2021/01/02 01:01:47;;;;;;;92.10;34.27;;;;;;;-1.49;98.19;96059.97;5090500;28;20278;-63
2021/01/02 01:04:48;;;;;;;71.73;29.80;;;;;;;-1.38;97.90;96067.75;5090506;28;20282;-64
2021/01/02 01:07:18;;;;;;;69.73;29.23;;;;;;;-1.39;98.05;96061.09;5081833;28;20289;-64
2021/01/02 01:09:50;;;;;;;60.97;29.63;;;;;;;-1.46;98.15;96062.91;5090352;28;20663;-64
2021/01/02 01:12:18;;;;;;;68.10;29.00;;;;;;;-1.45;98.17;96063.69;5089717;28;20677;-64
2021/01/02 01:14:46;;;;;;;56.83;27.53;;;;;;;-1.43;98.41;96071.91;5090611;28;20564;-63
2021/01/02 01:17:22;;;;;;;61.13;27.43;;;;;;;-1.59;96.78;96075.69;5090311;28;20226;-64
2021/01/02 01:19:54;;;;;;;57.23;27.53;;;;;;;-1.62;96.81;96070.22;5090654;28;20641;-65
2021/01/02 01:22:25;;;;;;;64.63;28.27;;;;;;;-1.58;96.67;96073.94;5090279;28;20200;-64
2021/01/02 01:25:03;;;;;;;63.17;28.87;;;;;;;-1.55;96.67;96074.31;5090260;28;20191;-63
2021/01/02 01:27:43;;;;;;;56.40;28.20;;;;;;;-1.57;96.79;96072.94;5090226;28;20202;-64
2021/01/02 01:30:14;;;;;;;57.17;26.53;;;;;;;-1.62;97.35;96070.22;5090136;28;20242;-63
2021/01/02 01:32:45;;;;;;;49.37;23.37;;;;;;;-1.79;96.46;96075.78;5090417;28;20198;-63
2021/01/02 01:35:13;;;;;;;55.77;26.50;;;;;;;-2.03;95.42;96073.88;5090420;28;20278;-64
2021/01/02 01:37:42;;;;;;;55.33;27.07;;;;;;;-1.92;96.35;96083.47;5090275;28;20233;-64
2021/01/02 01:40:13;;;;;;;53.30;25.07;;;;;;;-1.85;95.92;96086.00;5089754;28;20327;-63
2021/01/02 01:42:42;;;;;;;53.83;25.13;;;;;;;-1.86;95.30;96075.03;5090119;28;20734;-62
2021/01/02 01:45:44;;;;;;;49.50;23.37;;;;;;;-1.96;95.22;96084.06;5089787;28;20737;-63
2021/01/02 01:48:16;;;;;;;32.90;16.27;;;;;;;-2.16;94.57;96086.66;5089860;28;20254;-63
2021/01/02 01:50:58;;;;;;;30.33;15.90;;;;;;;-2.63;94.25;96088.44;5090230;28;20204;-63
2021/01/02 01:54:00;;;;;;;39.23;19.77;;;;;;;-2.50;94.35;96087.69;5089870;28;20715;-62
2021/01/02 01:56:31;;;;;;;41.83;19.80;;;;;;;-2.43;94.69;96092.75;5089766;28;20284;-64
2021/01/02 01:59:23;;;;;;;45.73;19.43;;;;;;;-2.36;95.37;96088.44;5089963;28;20201;-64
2021/01/02 02:01:53;;;;;;;36.83;17.80;;;;;;;-2.34;94.50;96086.50;5089812;28;20332;-63
2021/01/02 02:05:01;;;;;;;41.33;19.40;;;;;;;-2.29;95.69;96084.16;5089919;28;20237;-63
2021/01/02 02:07:41;;;;;;;52.80;22.37;;;;;;;-2.21;95.85;96086.47;5089650;28;20233;-63
2021/01/02 02:10:09;;;;;;;43.87;20.63;;;;;;;-2.28;97.13;96098.41;5089422;28;20255;-64
2021/01/02 02:12:47;;;;;;;42.20;19.13;;;;;;;-2.21;96.41;96089.00;5089645;28;20282;-63
2021/01/02 02:15:21;;;;;;;46.17;22.17;;;;;;;-2.23;97.72;96086.66;5089817;28;20233;-64
2021/01/02 02:17:49;;;;;;;44.33;21.77;;;;;;;-2.28;97.43;96090.78;5089696;28;20669;-63
2021/01/02 02:20:23;;;;;;;55.30;24.43;;;;;;;-2.33;97.38;96093.13;5089499;28;20300;-63
2021/01/02 02:23:02;;;;;;;53.67;23.83;;;;;;;-2.24;98.85;96086.84;5089722;28;20198;-63
2021/01/02 02:25:54;;;;;;;54.90;24.97;;;;;;;-2.29;99.13;96090.00;5093321;28;20261;-64
2021/01/02 02:29:02;;;;;;;46.97;22.70;;;;;;;-2.23;100.00;96088.41;5079715;28;20193;-61
2021/01/02 02:31:29;;;;;;;45.53;22.63;;;;;;;-2.19;100.00;96097.22;5077545;28;20229;-64
2021/01/02 02:33:58;;;;;;;39.73;19.77;;;;;;;-2.26;99.88;96091.38;5093015;28;20237;-60
2021/01/02 02:36:27;;;;;;;32.60;17.13;;;;;;;-2.39;99.03;96084.53;5093110;28;20276;-64
2021/01/02 02:38:54;;;;;;;55.00;22.97;;;;;;;-2.53;98.06;96087.28;5092931;28;20215;-64
2021/01/02 02:41:27;;;;;;;52.40;21.10;;;;;;;-2.53;97.17;96094.91;5092930;28;20224;-63
2021/01/02 02:43:54;;;;;;;43.60;18.67;;;;;;;-2.51;97.35;96095.50;5092901;28;20230;-63
2021/01/02 02:46:22;;;;;;;36.30;18.60;;;;;;;-2.53;98.07;96095.69;5092894;28;20280;-64
2021/01/02 02:48:55;;;;;;;33.07;17.57;;;;;;;-2.51;97.38;96086.13;5092989;28;20320;-63
2021/01/02 02:51:26;;;;;;;38.87;19.07;;;;;;;-2.51;97.44;96092.97;5092718;28;20197;-63
2021/01/02 02:53:53;;;;;;;40.53;18.07;;;;;;;-2.51;96.98;96095.50;5093379;28;20200;-63
2021/01/02 02:56:19;;;;;;;36.83;16.87;;;;;;;-2.56;96.33;96095.31;5092767;28;20202;-61
2021/01/02 02:58:46;;;;;;;31.43;17.40;;;;;;;-2.62;96.40;96095.13;5092614;28;20290;-62
2021/01/02 03:01:13;;;;;;;35.90;16.50;;;;;;;-2.57;96.41;96096.28;5092519;28;20669;-64
2021/01/02 03:03:40;;;;;;;36.13;17.57;;;;;;;-2.68;96.42;96084.94;5092537;28;20676;-63
2021/01/02 03:06:07;;;;;;;33.80;16.73;;;;;;;-2.58;97.03;96082.78;5092349;28;20288;-64
2021/01/02 03:08:36;;;;;;;33.37;17.63;;;;;;;-2.48;96.73;96079.84;5092292;28;20311;-62
2021/01/02 03:11:03;;;;;;;34.37;17.93;;;;;;;-2.48;96.65;96079.84;5092334;28;20196;-64
2021/01/02 03:13:41;;;;;;;30.93;16.80;;;;;;;-2.46;96.56;96073.59;5092150;28;20229;-61
2021/01/02 03:16:08;;;;;;;32.80;15.70;;;;;;;-2.50;97.52;96079.25;5092296;28;20318;-63
2021/01/02 03:18:35;;;;;;;32.43;16.60;;;;;;;-2.47;97.51;96079.66;5092088;28;20650;-63
2021/01/02 03:21:02;;;;;;;33.37;16.53;;;;;;;-2.50;97.53;96084.34;5092373;28;20230;-63
2021/01/02 03:23:29;;;;;;;28.47;15.60;;;;;;;-2.49;97.74;96083.38;5092074;28;20229;-64
2021/01/02 03:26:04;;;;;;;35.90;16.70;;;;;;;-2.48;97.14;96080.63;5091957;28;20192;-62
2021/01/02 03:28:31;;;;;;;28.37;15.47;;;;;;;-2.46;97.58;96082.97;5092072;28;20202;-63
2021/01/02 03:30:58;;;;;;;30.50;14.97;;;;;;;-2.49;96.95;96088.47;5091871;28;20194;-64
2021/01/02 03:33:26;;;;;;;31.93;15.73;;;;;;;-2.57;97.70;96088.66;5092114;28;20305;-63
2021/01/02 03:35:57;;;;;;;26.63;13.23;;;;;;;-2.64;96.58;96093.75;5090872;28;20198;-64
2021/01/02 03:38:25;;;;;;;26.00;13.00;;;;;;;-2.78;95.29;96092.94;5091819;28;20201;-62
2021/01/02 03:40:52;;;;;;;27.13;13.20;;;;;;;-2.79;95.34;96099.00;5091646;28;20245;-64
2021/01/02 03:43:20;;;;;;;26.33;13.20;;;;;;;-2.82;94.75;96093.53;5091712;28;20728;-63
2021/01/02 03:45:47;;;;;;;26.93;12.63;;;;;;;-2.82;94.45;96106.25;5091864;28;20199;-63
2021/01/02 03:48:14;;;;;;;22.93;12.70;;;;;;;-2.83;94.38;96113.09;5091761;28;20193;-63
2021/01/02 03:50:41;;;;;;;25.50;13.73;;;;;;;-2.93;94.51;96106.81;5091874;28;20251;-63
2021/01/02 03:53:08;;;;;;;30.70;17.67;;;;;;;-2.98;95.27;96114.25;5091483;28;20697;-64
2021/01/02 03:55:35;;;;;;;38.13;19.33;;;;;;;-2.95;95.51;96107.03;5091498;28;20234;-62
2021/01/02 03:58:02;;;;;;;39.17;18.40;;;;;;;-2.87;95.82;96114.47;5091613;28;20613;-62
2021/01/02 04:00:30;;;;;;;45.87;21.47;;;;;;;-2.95;95.34;96121.50;5091321;28;20586;-63
2021/01/02 04:02:57;;;;;;;44.00;20.97;;;;;;;-2.89;95.87;96115.66;5091313;28;20239;-63
2021/01/02 04:05:24;;;;;;;42.80;20.10;;;;;;;-2.91;95.26;96120.91;5091328;28;20188;-63
2021/01/02 04:07:51;;;;;;;45.90;21.43;;;;;;;-2.97;95.95;96111.50;5091267;28;20222;-63
2021/01/02 04:10:18;;;;;;;45.53;21.90;;;;;;;-2.92;96.30;96128.72;5091328;28;20241;-63
2021/01/02 04:12:45;;;;;;;43.63;21.67;;;;;;;-3.11;97.20;96125.19;5091032;28;20300;-62
2021/01/02 04:15:13;;;;;;;47.13;23.57;;;;;;;-3.08;98.15;96134.94;5091030;28;20241;-63
2021/01/02 04:17:40;;;;;;;42.97;19.60;;;;;;;-3.13;96.39;96135.53;5091032;28;20763;-63
2021/01/02 04:20:08;;;;;;;34.93;17.57;;;;;;;-3.02;95.84;96134.19;5091338;28;20233;-64
2021/01/02 04:22:35;;;;;;;35.40;18.63;;;;;;;-3.14;96.36;96125.56;5090950;28;20203;-62
2021/01/02 04:25:02;;;;;;;42.77;19.97;;;;;;;-3.18;97.96;96124.38;5091087;28;20265;-63
2021/01/02 04:27:29;;;;;;;42.37;17.80;;;;;;;-3.09;99.21;96128.31;5090711;28;20697;-63
2021/01/02 04:29:56;;;;;;;33.77;16.80;;;;;;;-2.97;99.25;96126.75;5090669;28;20201;-63
2021/01/02 04:32:23;;;;;;;35.00;16.17;;;;;;;-3.00;99.77;96122.06;5090898;28;20239;-63
2021/01/02 04:34:51;;;;;;;37.40;17.83;;;;;;;-2.87;99.99;96126.38;5090672;28;20195;-63
2021/01/02 04:37:18;;;;;;;43.83;19.57;;;;;;;-2.92;99.22;96124.44;5090573;28;20283;-62
2021/01/02 04:39:45;;;;;;;40.87;18.43;;;;;;;-2.84;100.00;96126.78;5090366;28;20324;-63
2021/01/02 04:42:12;;;;;;;33.83;17.10;;;;;;;-2.86;100.00;96133.84;5090831;28;20193;-63
2021/01/02 04:44:39;;;;;;;36.60;16.40;;;;;;;-2.89;100.00;96136.00;5090388;28;20718;-63
2021/01/02 04:47:08;;;;;;;29.03;15.13;;;;;;;-2.99;99.66;96143.97;5090067;28;20299;-62
2021/01/02 04:49:35;;;;;;;26.20;14.00;;;;;;;-2.96;99.17;96150.44;5090481;28;20232;-66
2021/01/02 04:52:04;;;;;;;25.67;13.73;;;;;;;-3.06;97.92;96148.25;5090550;28;20669;-64
2021/01/02 04:54:31;;;;;;;28.97;13.70;;;;;;;-3.16;97.82;96147.84;5090346;28;20239;-62
2021/01/02 04:57:01;;;;;;;27.40;13.23;;;;;;;-3.26;97.28;96157.59;5090399;28;20221;-63
2021/01/02 04:59:27;;;;;;;25.50;12.73;;;;;;;-3.24;96.21;96176.75;5090697;28;20233;-63
2021/01/02 05:01:55;;;;;;;30.00;13.10;;;;;;;-3.29;95.06;96170.69;5090278;28;20204;-63
2021/01/02 05:04:22;;;;;;;33.83;13.83;;;;;;;-3.31;95.38;96170.84;5090310;28;20189;-62
2021/01/02 05:06:50;;;;;;;29.70;13.20;;;;;;;-3.26;95.43;96173.59;5090166;28;20197;-64
2021/01/02 05:09:17;;;;;;;32.37;14.20;;;;;;;-3.32;96.07;96174.38;5090049;28;20249;-63
2021/01/02 05:11:44;;;;;;;35.43;15.50;;;;;;;-3.28;97.24;96172.22;5090120;28;20201;-63
2021/01/02 05:14:11;;;;;;;39.57;17.87;;;;;;;-3.20;97.52;96174.63;5090246;28;20663;-63
2021/01/02 05:16:39;;;;;;;44.33;17.73;;;;;;;-3.20;97.36;96185.56;5090167;28;20919;-64
2021/01/02 05:19:07;;;;;;;28.30;14.03;;;;;;;-3.17;96.90;96181.84;5090052;28;20234;-63
2021/01/02 05:21:36;;;;;;;32.20;14.40;;;;;;;-3.25;96.76;96184.56;5090052;28;20238;-64
2021/01/02 05:24:08;;;;;;;30.13;13.23;;;;;;;-3.26;97.06;96180.44;5090296;28;20220;-63
2021/01/02 05:26:38;;;;;;;30.70;15.43;;;;;;;-3.24;97.65;96191.22;5090295;28;20232;-63
2021/01/02 05:29:26;;;;;;;27.50;14.80;;;;;;;-3.26;98.74;96188.84;5090310;28;20207;-64
2021/01/02 05:31:54;;;;;;;29.87;15.37;;;;;;;-3.26;98.68;96193.16;5085417;28;20705;-62
2021/01/02 05:34:23;;;;;;;35.37;16.80;;;;;;;-3.20;98.72;96192.41;5089961;28;20289;-63
2021/01/02 05:36:59;;;;;;;37.40;18.07;;;;;;;-3.09;98.96;96194.41;5090148;28;20236;-63
2021/01/02 05:39:35;;;;;;;37.37;18.10;;;;;;;-3.03;99.64;96194.41;5089714;28;20241;-63
2021/01/02 05:42:04;;;;;;;33.20;16.20;;;;;;;-3.13;98.20;96195.72;5090213;28;20613;-66
2021/01/02 05:44:34;;;;;;;31.27;14.43;;;;;;;-3.13;98.22;96203.34;5089731;28;20284;-63
2021/01/02 05:47:01;;;;;;;31.20;14.97;;;;;;;-3.20;96.78;96203.34;5090132;28;20204;-62
2021/01/02 05:49:33;;;;;;;26.20;12.50;;;;;;;-3.32;96.17;96207.38;5089940;28;20706;-62
2021/01/02 05:52:02;;;;;;;43.00;18.97;;;;;;;-3.32;95.33;96202.31;5089784;28;20759;-63
2021/01/02 05:54:30;;;;;;;60.93;25.07;;;;;;;-3.32;96.13;96201.53;5090068;28;20293;-63
2021/01/02 05:56:59;;;;;;;76.50;35.13;;;;;;;-3.22;96.53;96212.91;5089746;28;20221;-63
2021/01/02 05:59:35;;;;;;;76.80;38.63;;;;;;;-3.20;98.00;96207.66;5092121;28;20233;-63
2021/01/02 06:02:22;;;;;;;61.63;31.57;;;;;;;-3.30;97.82;96217.38;5093911;28;20292;-63
2021/01/02 06:04:58;;;;;;;41.00;20.10;;;;;;;-3.65;96.98;96221.69;5093645;28;20286;-63
2021/01/02 06:07:27;;;;;;;27.53;13.60;;;;;;;-3.55;94.99;96220.38;5093916;28;20219;-62
2021/01/02 06:09:54;;;;;;;29.90;15.23;;;;;;;-3.56;94.04;96223.88;5093549;28;20209;-63
2021/01/02 06:12:31;;;;;;;38.80;17.23;;;;;;;-3.71;94.47;96225.75;5093515;28;20243;-63
2021/01/02 06:15:01;;;;;;;36.57;16.97;;;;;;;-3.74;94.62;96223.59;5093446;28;20205;-63
2021/01/02 06:17:33;;;;;;;37.97;16.37;;;;;;;-3.82;95.40;96228.78;5093922;28;20201;-64
2021/01/02 06:20:01;;;;;;;31.90;15.17;;;;;;;-3.96;94.69;96230.47;5093344;28;20265;-64
2021/01/02 06:22:29;;;;;;;29.80;14.27;;;;;;;-3.92;93.80;96239.28;5093131;28;20206;-62
2021/01/02 06:24:56;;;;;;;31.30;15.00;;;;;;;-3.74;94.83;96238.81;5093264;28;20192;-64
2021/01/02 06:27:23;;;;;;;36.33;15.57;;;;;;;-3.56;94.06;96235.78;5093349;28;20272;-64
2021/01/02 06:29:55;;;;;;;35.13;16.97;;;;;;;-3.44;94.57;96236.06;5093220;28;20632;-63
2021/01/02 06:32:24;;;;;;;33.63;16.03;;;;;;;-3.41;95.01;96241.56;5093373;28;20194;-63
2021/01/02 06:35:22;;;;;;;33.87;16.60;;;;;;;-3.37;95.75;96241.94;5093271;28;20281;-63
2021/01/02 06:38:11;;;;;;;32.73;15.80;;;;;;;-3.25;95.50;96245.53;5092980;28;20235;-64
2021/01/02 06:40:40;;;;;;;40.13;18.80;;;;;;;-3.23;95.66;96244.38;5092673;28;20237;-64
2021/01/02 06:43:10;;;;;;;43.03;20.87;;;;;;;-3.05;96.23;96247.22;5093079;28;20342;-63
2021/01/02 06:45:56;;;;;;;42.77;21.07;;;;;;;-2.85;97.51;96241.41;5092979;28;20605;-63
2021/01/02 06:48:41;;;;;;;43.80;21.73;;;;;;;-2.67;96.34;96246.72;5092929;28;20193;-63
2021/01/02 06:51:30;;;;;;;43.03;20.00;;;;;;;-2.58;96.44;96247.34;5092928;28;20237;-63
2021/01/02 06:53:58;;;;;;;50.80;23.17;;;;;;;-2.49;97.26;96239.31;5092757;28;20612;-63
2021/01/02 06:56:32;;;;;;;57.50;27.73;;;;;;;-2.29;97.72;96249.56;5092519;28;20279;-63
2021/01/02 06:58:59;;;;;;;51.87;25.53;;;;;;;-2.24;97.87;96247.97;5092531;28;20224;-63
2021/01/02 07:01:43;;;;;;;44.20;20.10;;;;;;;-2.01;97.84;96259.56;5092688;28;20859;-63
2021/01/02 07:04:12;;;;;;;47.37;22.77;;;;;;;-1.87;98.01;96246.63;5092650;28;20233;-63
2021/01/02 07:06:41;;;;;;;58.70;28.63;;;;;;;-1.71;97.21;96259.94;5092846;28;20380;-64
2021/01/02 07:09:28;;;;;;;50.37;24.97;;;;;;;-1.61;97.29;96265.44;5092540;28;20625;-63
2021/01/02 07:12:10;;;;;;;48.10;26.33;;;;;;;-1.37;96.37;96262.25;5092602;28;20192;-64
2021/01/02 07:14:37;;;;;;;60.70;30.10;;;;;;;-1.22;96.45;96257.72;5092242;28;20245;-63
2021/01/02 07:17:06;;;;;;;57.03;28.23;;;;;;;-1.08;95.50;96266.88;5092337;28;20281;-64
2021/01/02 07:19:49;;;;;;;56.93;29.50;;;;;;;-1.08;95.88;96268.66;5092268;28;20237;-63
2021/01/02 07:22:29;;;;;;;74.33;35.13;;;;;;;-1.09;96.16;96267.84;5092471;28;20214;-64
2021/01/02 07:25:01;;;;;;;73.63;37.70;;;;;;;-1.09;95.90;96260.22;5092168;28;20246;-63
2021/01/02 07:27:31;;;;;;;72.37;37.90;;;;;;;-0.88;95.79;96265.03;5091973;28;20195;-60
2021/01/02 07:30:02;;;;;;;398.27;147.77;;;;;;;-0.77;95.43;96265.41;5092291;28;20268;-62
2021/01/02 07:32:30;;;;;;;332.77;125.20;;;;;;;-0.62;95.54;96265.91;5092149;28;20290;-63
2021/01/02 07:34:59;;;;;;;130.13;58.00;;;;;;;-0.35;95.18;96264.81;5091971;28;20238;-61
2021/01/02 07:37:28;;;;;;;137.43;61.83;;;;;;;-0.17;95.20;96264.88;5091823;28;20439;-63
2021/01/02 07:40:00;;;;;;;151.57;66.50;;;;;;;0.05;95.04;96269.66;5091646;28;20783;-63
2021/01/02 07:42:29;;;;;;;143.77;62.07;;;;;;;0.10;93.82;96259.59;5091985;28;20250;-64
2021/01/02 07:45:01;;;;;;;131.87;58.23;;;;;;;0.17;93.66;96260.31;5091906;28;20285;-64
2021/01/02 07:47:29;;;;;;;124.47;56.53;;;;;;;0.30;93.85;96255.09;5091712;28;20223;-64
2021/01/02 07:50:01;;;;;;;137.17;61.03;;;;;;;0.23;93.47;96264.59;5091607;28;20283;-64
2021/01/02 07:52:29;;;;;;;144.43;63.67;;;;;;;0.42;95.00;96258.53;5091598;28;20193;-65
2021/01/02 07:54:56;;;;;;;190.23;76.50;;;;;;;0.67;93.45;96261.81;5091680;28;20635;-64
2021/01/02 07:57:24;;;;;;;221.20;89.77;;;;;;;0.80;93.08;96256.56;5091412;28;20200;-64
2021/01/02 07:59:52;;;;;;;196.93;87.50;;;;;;;0.98;92.52;96266.03;5091467;28;20315;-65
2021/01/02 08:02:23;;;;;;;164.27;76.90;;;;;;;1.10;92.45;96260.97;5091391;28;20337;-65
2021/01/02 08:04:51;;;;;;;125.63;60.60;;;;;;;1.32;91.97;96259.53;5091634;28;20200;-64
2021/01/02 08:07:20;;;;;;;104.50;50.73;;;;;;;1.21;93.22;96258.47;5091371;28;20229;-64
2021/01/02 08:09:48;;;;;;;84.23;42.63;;;;;;;1.49;92.85;96254.59;5091308;28;20211;-64
2021/01/02 08:12:16;;;;;;;76.40;40.73;;;;;;;1.59;93.33;96254.88;5091443;28;20283;-66
2021/01/02 08:14:45;;;;;;;67.37;36.57;;;;;;;1.71;92.22;96259.03;5091195;28;20270;-62
2021/01/02 08:17:14;;;;;;;102.30;42.17;;;;;;;1.94;92.00;96255.75;5090982;28;20284;-65
2021/01/02 08:19:53;;;;;;;149.30;51.63;;;;;;;2.16;91.36;96250.88;5090928;28;20309;-65
2021/01/02 08:22:29;;;;;;;130.07;53.37;;;;;;;2.28;90.67;96251.66;5090630;28;20578;-65
2021/01/02 08:24:57;;;;;;;142.27;56.33;;;;;;;2.39;90.34;96253.44;5091030;28;20293;-65
2021/01/02 08:27:24;;;;;;;131.90;55.73;;;;;;;2.40;89.37;96249.88;5091269;28;20192;-66
2021/01/02 08:29:51;;;;;;;92.67;41.77;;;;;;;2.42;89.87;96255.56;5090948;28;20626;-65
2021/01/02 08:32:22;;;;;;;118.10;54.33;;;;;;;2.38;89.02;96261.38;5090569;28;20558;-65
2021/01/02 08:34:49;;;;;;;76.60;41.17;;;;;;;2.39;90.90;96258.56;5090966;28;20205;-65
2021/01/02 08:37:17;;;;;;;60.10;31.07;;;;;;;2.59;91.46;96255.69;5091001;28;20291;-66
2021/01/02 08:39:45;;;;;;;70.00;34.80;;;;;;;2.89;91.96;96260.69;5090328;28;20246;-66
2021/01/02 08:42:13;;;;;;;45.37;24.77;;;;;;;3.11;91.08;96248.00;5091063;28;20223;-66
2021/01/02 08:44:46;;;;;;;36.73;20.37;;;;;;;2.99;90.19;96245.47;5090615;28;20196;-66
2021/01/02 08:47:24;;;;;;;41.00;21.90;;;;;;;2.94;90.42;96240.22;5090567;28;20275;-66
2021/01/02 08:49:51;;;;;;;33.40;20.87;;;;;;;2.80;89.87;96241.47;5090750;28;20195;-66
2021/01/02 08:52:23;;;;;;;31.87;19.50;;;;;;;3.11;89.87;96237.75;5090585;28;20231;-61
2021/01/02 08:54:53;;;;;;;36.33;19.83;;;;;;;3.56;87.24;96238.59;5090505;28;20646;-68
2021/01/02 08:57:28;;;;;;;37.50;22.13;;;;;;;3.29;88.26;96238.34;5090477;28;20206;-67
2021/01/02 09:00:09;;;;;;;38.00;21.43;;;;;;;3.43;88.23;96238.88;5090399;28;20273;-67
2021/01/02 09:02:37;;;;;;;33.50;19.80;;;;;;;3.30;88.45;96239.91;5090653;28;20278;-66
2021/01/02 09:05:06;;;;;;;31.33;18.70;;;;;;;3.34;88.04;96238.44;5090361;28;20290;-67
2021/01/02 09:07:33;;;;;;;29.40;16.23;;;;;;;3.34;87.21;96240.22;5090420;28;20188;-66
2021/01/02 09:10:16;;;;;;;28.60;16.53;;;;;;;3.35;87.34;96240.00;5090308;28;20193;-67
2021/01/02 09:12:44;;;;;;;28.63;16.57;;;;;;;3.39;86.59;96232.63;5090311;28;20199;-67
2021/01/02 09:15:12;;;;;;;27.57;15.40;;;;;;;3.67;85.00;96226.72;5090104;28;20244;-68
2021/01/02 09:17:49;;;;;;;27.33;15.23;;;;;;;3.83;85.46;96220.81;5090179;28;20786;-68
2021/01/02 09:20:17;;;;;;;24.83;15.33;;;;;;;4.09;84.23;96225.34;5090152;28;20263;-67
2021/01/02 09:22:54;;;;;;;28.10;16.73;;;;;;;4.26;83.91;96226.13;5090073;28;20742;-67
2021/01/02 09:25:28;;;;;;;23.63;16.17;;;;;;;4.51;82.94;96224.91;5090061;28;20227;-67
2021/01/02 09:27:55;;;;;;;27.30;17.53;;;;;;;4.48;82.43;96222.84;5090024;28;20609;-67
2021/01/02 09:30:22;;;;;;;25.40;15.70;;;;;;;4.43;83.68;96222.75;5090090;28;20199;-67
2021/01/02 09:32:49;;;;;;;26.77;15.93;;;;;;;4.62;84.48;96219.69;5090069;28;20757;-68
2021/01/02 09:35:17;;;;;;;22.80;13.47;;;;;;;4.62;82.21;96222.25;5094254;28;20601;-68
2021/01/02 09:37:44;;;;;;;24.13;14.13;;;;;;;4.66;81.46;96219.97;5094131;28;20195;-66
2021/01/02 09:40:15;;;;;;;24.53;14.70;;;;;;;4.79;81.25;96209.31;5093904;28;20368;-68
2021/01/02 09:42:43;;;;;;;22.43;14.33;;;;;;;4.98;81.82;96208.00;5094319;28;20279;-67
2021/01/02 09:45:11;;;;;;;21.53;13.50;;;;;;;5.17;80.44;96205.94;5094343;28;20195;-67
2021/01/02 09:47:37;;;;;;;22.00;14.27;;;;;;;5.32;79.45;96195.00;5094178;28;20195;-68
2021/01/02 09:50:06;;;;;;;27.07;15.90;;;;;;;5.51;79.96;96189.28;5093961;28;20246;-68
2021/01/02 09:52:33;;;;;;;20.43;13.57;;;;;;;5.61;79.09;96193.75;5093837;28;20578;-68
2021/01/02 09:55:00;;;;;;;21.13;12.80;;;;;;;5.75;79.43;96194.91;5093785;28;20218;-68
2021/01/02 09:57:28;;;;;;;19.37;12.43;;;;;;;5.61;79.24;96196.31;5093904;28;20235;-69
2021/01/02 09:59:55;;;;;;;17.43;11.23;;;;;;;5.63;78.41;96187.31;5093780;28;20263;-68
2021/01/02 10:02:22;;;;;;;17.83;10.90;;;;;;;5.73;78.98;96178.88;5093926;28;20224;-69
2021/01/02 10:04:50;;;;;;;14.90;9.30;;;;;;;5.90;77.77;96173.63;5093740;28;20587;-68
2021/01/02 10:07:18;;;;;;;16.53;9.20;;;;;;;6.12;76.66;96165.81;5093607;28;20238;-68
2021/01/02 10:09:47;;;;;;;22.03;10.27;;;;;;;6.31;77.06;96174.69;5093655;28;20203;-67
2021/01/02 10:12:16;;;;;;;19.23;9.83;;;;;;;6.38;75.58;96168.28;5093752;28;20587;-67
2021/01/02 10:14:44;;;;;;;17.77;9.07;;;;;;;6.61;73.09;96171.50;5093659;28;20196;-69
2021/01/02 10:17:13;;;;;;;19.77;11.07;;;;;;;6.73;75.03;96166.91;5093909;28;20275;-68
2021/01/02 10:19:42;;;;;;;18.03;10.77;;;;;;;6.30;77.01;96162.81;5093411;28;20266;-68
2021/01/02 10:22:09;;;;;;;17.17;10.27;;;;;;;6.17;76.03;96158.88;5093442;28;20199;-68
2021/01/02 10:24:36;;;;;;;18.67;10.77;;;;;;;5.86;75.93;96157.84;5093345;28;20199;-67
2021/01/02 10:27:04;;;;;;;16.97;10.63;;;;;;;5.99;75.76;96151.50;5093688;28;20245;-68
2021/01/02 10:29:31;;;;;;;16.43;10.80;;;;;;;5.98;78.19;96140.41;5093212;28;20234;-69
2021/01/02 10:32:01;;;;;;;20.87;10.33;;;;;;;6.16;76.26;96147.00;5093029;28;20192;-68
2021/01/02 10:34:28;;;;;;;15.27;9.97;;;;;;;6.36;75.06;96151.50;5093006;28;20200;-68
2021/01/02 10:36:55;;;;;;;16.27;10.30;;;;;;;6.30;74.92;96142.16;5092987;28;20195;-68
2021/01/02 10:39:22;;;;;;;17.67;10.77;;;;;;;6.20;76.39;96134.38;5092744;28;20273;-69
2021/01/02 10:41:50;;;;;;;16.70;10.60;;;;;;;6.36;75.84;96125.69;5093452;28;20192;-68
2021/01/02 10:44:19;;;;;;;18.83;11.07;;;;;;;6.63;75.62;96125.53;5092594;28;20207;-69
2021/01/02 10:46:47;;;;;;;23.97;11.13;;;;;;;6.90;74.13;96119.19;5093006;28;20196;-68
2021/01/02 10:49:17;;;;;;;19.93;12.90;;;;;;;7.07;72.36;96121.56;5092858;28;20235;-69
2021/01/02 10:51:45;;;;;;;24.63;14.87;;;;;;;7.19;71.47;96116.16;5093117;28;20585;-69
2021/01/02 10:54:13;;;;;;;21.30;12.07;;;;;;;7.19;71.82;96106.59;5092710;28;20187;-69
2021/01/02 10:56:44;;;;;;;16.87;10.43;;;;;;;7.33;71.89;96105.06;5092779;28;20192;-69
2021/01/02 10:59:11;;;;;;;26.00;14.13;;;;;;;7.46;72.08;96103.78;5092733;28;20222;-68
2021/01/02 11:01:42;;;;;;;20.20;12.90;;;;;;;7.44;72.00;96103.25;5092836;28;20709;-69
2021/01/02 11:04:09;;;;;;;25.80;11.67;;;;;;;7.59;71.34;96095.50;5092793;28;20228;-65
2021/01/02 11:06:38;;;;;;;18.87;10.93;;;;;;;7.73;70.76;96088.00;5092773;28;20283;-69
2021/01/02 11:09:06;;;;;;;28.47;17.33;;;;;;;7.62;70.18;96089.81;5092460;28;20195;-70
2021/01/02 11:11:33;;;;;;;78.70;53.40;;;;;;;7.80;69.54;96083.34;5092516;28;20567;-70
2021/01/02 11:14:01;;;;;;;80.00;69.87;;;;;;;7.89;70.06;96070.66;5092396;28;20691;-69
2021/01/02 11:16:32;;;;;;;21.20;14.77;;;;;;;7.94;70.83;96068.06;5092725;28;20228;-68
2021/01/02 11:18:59;;;;;;;18.97;11.53;;;;;;;7.99;69.41;96075.81;5092633;28;20634;-72
2021/01/02 11:21:26;;;;;;;22.20;10.87;;;;;;;8.09;72.56;96075.78;5092247;28;20255;-70
2021/01/02 11:23:54;;;;;;;18.87;10.10;;;;;;;8.27;70.43;96077.78;5092060;28;20231;-70
2021/01/02 11:26:21;;;;;;;16.83;9.63;;;;;;;8.42;69.01;96072.59;5092101;28;20227;-69
2021/01/02 11:28:48;;;;;;;21.87;11.73;;;;;;;8.48;69.52;96063.78;5092139;28;20702;-72
2021/01/02 11:31:15;;;;;;;16.30;10.20;;;;;;;8.47;70.00;96069.22;5092266;28;20200;-71
2021/01/02 11:33:44;;;;;;;18.87;11.40;;;;;;;8.71;68.72;96067.56;5092151;28;20196;-70
2021/01/02 11:36:12;;;;;;;12.30;7.00;;;;;;;8.75;67.73;96062.63;5092271;28;20192;-70
2021/01/02 11:38:39;;;;;;;9.17;6.17;;;;;;;8.91;68.75;96056.31;5091912;28;20239;-71
2021/01/02 11:41:07;;;;;;;11.27;7.07;;;;;;;8.88;65.87;96057.63;5091759;28;20292;-70